x

Central Dixon Entrance Buoy (46145) Wave Buoy

3:00pm - Sat 28th May 2016 All times are PDT. -7 hours from GMT.

  • Sig Wave height 2.6ft
  • Peak Period 4s
  • Wind
    18mph, 20mph gusts
  • Sea Temp 53°f
  • Air Temp 51°f
  • Sea Pressure 1014.6mb
  • Central Dixon Entrance Buoy
  • Central Dixon Entrance Buoy

More Historic Weather Station data

Upgrade to MSW Pro to gain access to the past 30 days of data for over 8000 Wavebouys and Weather Stations around the globe.

Join Pro

Comparision Forecast

View Surf forecast
   
Sat 05/28 3:00pm 2.5ft 4s 18 20 mph 1014.6mb 53f 51f
2:00pm 2.5ft 6s 16 18 mph 1014.7mb 53f 51f
1:00pm 2.5ft 6s 13 16 mph 1014.7mb 53f 51f
12:00pm 2.5ft 7s 13 16 mph 1014.5mb 53f 51f
11:00am 2ft 5s 13 16 mph 1014.6mb 53f 51f
10:00am 1.6ft 5s 11 13 mph 1014.6mb 53f 51f
9:00am 2ft 7s 13 16 mph 1014.5mb 53f 51f
8:00am 2ft 7s 11 13 mph 1014.4mb 53f 51f
7:00am 2ft 7s 11 13 mph 1014.5mb 53f 51f
6:00am 2.5ft 6s 13 16 mph 1014.6mb 53f 49f
5:00am 2.5ft 7s 13 18 mph 1014.7mb 53f 49f
4:00am 2.5ft 7s 13 16 mph 1014.8mb 53f 50f
3:00am 2.5ft 7s 13 16 mph 1015mb 53f 51f
2:00am 2.5ft 7s 13
mph
1015.4mb 53f 51f
1:00am 2.5ft 7s 13
mph
1015.5mb 53f 51f
12:00am 2.5ft 7s 11 13 mph 1015.9mb 53f 51f
Fri 05/27 11:00pm 2.5ft 7s 11 13 mph 1015.9mb 53f 51f
10:00pm 2.5ft 8s 11 13 mph 1015.8mb 53f 51f
9:00pm 2.5ft 7s 13 16 mph 1015.5mb 53f 51f
8:00pm 2.5ft 7s 13 16 mph 1015.4mb 53f 51f
7:00pm 2.5ft 7s 13 16 mph 1015.5mb 53f 51f
6:00pm 2.5ft 6s 13 16 mph 1015.7mb 53f 51f
5:00pm 2.5ft 7s 13 16 mph 1015.8mb 53f 51f
4:00pm 3ft 7s 13 16 mph 1016mb 53f 51f
3:00pm 3ft 6s 13 16 mph 1016.2mb 52f 51f
2:00pm 3.5ft 7s 13 18 mph 1016.3mb 52f 50f
1:00pm 3.5ft 6s 13 18 mph 1016.3mb 52f 50f
12:00pm 3.5ft 7s 13 16 mph 1016.4mb 52f 50f
11:00am 3.5ft 7s 13 16 mph 1016.5mb 52f 50f
10:00am 3.5ft 7s 13 16 mph 1016.6mb 52f 49f
9:00am 3.5ft 5s 18 20 mph 1016.7mb 52f 49f
8:00am 4ft 7s 18 20 mph 1016.9mb 52f 49f
7:00am 4ft 7s 20 22 mph 1016.8mb 52f 49f
6:00am 3.5ft 8s 18 22 mph 1017mb 52f 49f
5:00am 3.5ft 7s 20 25 mph 1017.1mb 52f 50f
4:00am 3.5ft 7s 20 22 mph 1017.6mb 52f 50f
3:00am 3.5ft 8s 20 22 mph 1018.1mb 52f 50f
2:00am 4.5ft 7s 20 22 mph 1018.7mb 52f 50f
1:00am 4.5ft 8s 16 20 mph 1019.1mb 52f 50f
12:00am 4.5ft 8s 16 18 mph 1019.7mb 52f 50f
Thu 05/26 11:00pm 4.5ft 8s 13 16 mph 1020mb 52f 50f
10:00pm 4.5ft 8s 13 18 mph 1020.2mb 52f 50f
9:00pm 4.5ft 9s 16 18 mph 1020.2mb 52f 50f
8:00pm 4.5ft 8s 18 20 mph 1020.3mb 52f 50f
7:00pm 4.5ft 8s 18 20 mph 1020.5mb 52f 50f
6:00pm 4.5ft 8s 18 22 mph 1020.7mb 52f 50f
5:00pm 5ft 8s 18 22 mph 1021.1mb 51f 50f
4:00pm 5ft 8s 18 22 mph 1021.5mb 52f 50f
3:00pm 5ft 8s 20 22 mph 1021.7mb 52f 50f
2:00pm 5ft 7s 18 20 mph 1021.8mb 52f 50f
1:00pm 4.5ft 8s 18 22 mph 1021.8mb 52f 50f
12:00pm 5ft 8s 18 20 mph 1022.1mb 52f 50f
11:00am 4.5ft 8s 18 22 mph 1021.9mb 52f 50f
10:00am 4.5ft 9s 7 9 mph 1022mb 52f 49f
9:00am 4.5ft 8s 11 13 mph 1021.9mb 52f 49f
8:00am 4ft 8s 13 16 mph 1021.7mb 52f 49f
7:00am 4ft 8s 11 13 mph 1021.6mb 51f 49f
6:00am 4.5ft 8s 13 16 mph 1021.3mb 51f 49f
5:00am 4.5ft 8s 13 16 mph 1021.3mb 51f 48f
4:00am 4.5ft 7s 18 22 mph 1021.4mb 52f 49f
3:00am 4.5ft 8s 20 25 mph 1021.6mb 52f 49f
2:00am 4.5ft 7s 18 20 mph 1022mb 52f 49f
1:00am 4.5ft 7s 18 22 mph 1022.4mb 52f 49f
12:00am 4.5ft 8s 22 25 mph 1022.6mb 52f 49f
Wed 05/25 11:00pm 4.5ft 8s 18 22 mph 1022.8mb 52f 49f
10:00pm 4.5ft 8s 16 20 mph 1023.1mb 52f 49f
9:00pm 4.5ft 8s 18 20 mph 1023.4mb 52f 48f
8:00pm 4ft 8s 18 22 mph 1023.3mb 52f 49f
7:00pm 4ft 8s 18 20 mph 1023.4mb 52f 49f
6:00pm 4.5ft 9s 16 18 mph 1023.5mb 52f 49f
5:00pm 4.5ft 8s 18 22 mph 1023.7mb 52f 49f
4:00pm 4.5ft 8s 18 22 mph 1023.6mb 52f 49f
3:00pm 5ft 10s 18 22 mph 1023.6mb 52f 50f
2:00pm 5ft 10s 18 22 mph 1023.6mb 52f 50f
1:00pm 4.5ft 8s 18 20 mph 1023.4mb 52f 50f
12:00pm 5.5ft 9s 20 22 mph 1023.3mb 51f 50f
11:00am 5ft 9s 22 25 mph 1023.1mb 51f 49f
10:00am 4.5ft 9s 18 20 mph 1022.6mb 52f 50f
9:00am 4.5ft 10s 18 22 mph 1022.2mb 52f 50f
8:00am 4ft 8s 16 18 mph 1021.7mb 52f 50f
7:00am 4.5ft 8s 18 20 mph 1021.3mb 51f 50f
6:00am 4.5ft 9s 18 20 mph 1020.9mb 51f 50f
5:00am 5ft 8s 20 22 mph 1020.9mb 51f 49f
4:00am 5ft 9s 22 27 mph 1020.6mb 52f 49f
3:00am 4.5ft 8s 20 25 mph 1020.4mb 52f 50f
2:00am 5ft 8s 20 22 mph 1020.3mb 52f 50f
1:00am 5ft 10s 20 25 mph 1020.1mb 52f 50f
12:00am 5ft 9s 20 22 mph 1020.1mb 52f 50f